Time;durP1;ratioP1;P1;durP2;ratioP2;P2;SDS_P1;SDS_P2;PMS_P1;PMS_P2;Temp;Humidity;BMP_temperature;BMP_pressure;BME280_temperature;BME280_humidity;BME280_pressure;Samples;Min_cycle;Max_cycle;Signal;HPM_P1;HPM_P2
2022/06/11 00:01:19;;;;;;;9.40;7.93;;;;;;;16.77;72.07;99553.38;5107073;28;20059;-69
2022/06/11 00:03:48;;;;;;;7.32;6.57;;;;;;;16.76;72.22;99548.97;5107419;28;20070;-69
2022/06/11 00:06:15;;;;;;;10.75;9.25;;;;;;;16.76;72.37;99548.13;5107076;28;20049;-70
2022/06/11 00:08:44;;;;;;;9.82;7.05;;;;;;;16.72;72.36;99549.34;5106825;28;20067;-69
2022/06/11 00:11:13;;;;;;;9.63;8.45;;;;;;;16.70;72.15;99546.78;5107019;28;20066;-69
2022/06/11 00:13:43;;;;;;;9.55;7.80;;;;;;;16.70;71.99;99548.59;5107062;28;20288;-70
2022/06/11 00:16:12;;;;;;;10.07;8.07;;;;;;;16.67;72.11;99552.38;5106037;28;20062;-69
2022/06/11 00:18:41;;;;;;;9.05;8.15;;;;;;;16.65;72.30;99540.91;5106803;28;20048;-69
2022/06/11 00:21:09;;;;;;;11.13;10.10;;;;;;;16.64;71.94;99549.91;5106778;28;20063;-69
2022/06/11 00:23:37;;;;;;;10.10;9.05;;;;;;;16.61;72.23;99552.81;5106984;28;20048;-69
2022/06/11 00:26:05;;;;;;;7.07;6.35;;;;;;;16.09;71.81;99467.69;5106680;28;20055;-69
2022/06/11 00:28:33;;;;;;;13.85;12.45;;;;;;;16.60;71.64;99551.09;5106718;28;20200;-69
2022/06/11 00:31:03;;;;;;;9.80;8.40;;;;;;;16.60;71.45;99561.81;5106610;28;20220;-69
2022/06/11 00:33:30;;;;;;;8.05;7.25;;;;;;;16.59;71.54;99552.94;5106312;28;20126;-69
2022/06/11 00:35:58;;;;;;;6.47;5.72;;;;;;;16.59;71.84;99550.25;5106595;28;20047;-69
2022/06/11 00:38:25;;;;;;;7.45;6.47;;;;;;;16.59;71.42;99550.25;5106606;28;20056;-69
2022/06/11 00:40:55;;;;;;;7.85;7.05;;;;;;;16.58;71.42;99545.88;5106566;28;20056;-68
2022/06/11 00:43:24;;;;;;;6.15;5.55;;;;;;;16.56;71.13;99557.66;5106504;28;20079;-68
2022/06/11 00:45:59;;;;;;;6.68;5.05;;;;;;;16.53;70.24;99560.56;5106530;28;20105;-68
2022/06/11 00:48:31;;;;;;;6.82;5.63;;;;;;;16.54;71.01;99555.09;5106383;28;20059;-69
2022/06/11 00:51:02;;;;;;;6.15;5.38;;;;;;;16.52;71.02;99548.16;5106194;28;20335;-69
2022/06/11 00:53:35;;;;;;;5.70;5.05;;;;;;;16.50;70.52;99550.09;5106072;28;20319;-68
2022/06/11 00:56:06;;;;;;;5.05;4.55;;;;;;;16.50;71.26;99548.28;5105945;28;20311;-69
2022/06/11 00:58:38;;;;;;;7.90;4.63;;;;;;;16.51;71.12;99549.13;5106133;28;20071;-69
2022/06/11 01:01:06;;;;;;;5.47;4.47;;;;;;;15.89;70.86;99451.34;5106334;28;20047;-68
2022/06/11 01:03:38;;;;;;;5.05;4.53;;;;;;;16.50;70.08;99553.63;5106007;28;20062;-69
2022/06/11 01:06:15;;;;;;;6.32;4.57;;;;;;;16.50;69.95;99542.94;5106235;28;20055;-69
2022/06/11 01:08:56;;;;;;;5.90;4.82;;;;;;;16.47;69.27;99540.50;5106199;28;20059;-68
2022/06/11 01:11:44;;;;;;;5.60;4.55;;;;;;;16.46;69.03;99540.59;5105880;28;20055;-68
2022/06/11 01:14:26;;;;;;;6.22;4.60;;;;;;;16.45;69.28;99539.75;5105956;28;20055;-69
2022/06/11 01:17:05;;;;;;;5.90;4.53;;;;;;;16.45;70.17;99537.09;5105989;28;20047;-69
2022/06/11 01:20:00;;;;;;;4.70;4.00;;;;;;;16.44;68.74;99539.88;5105973;28;20075;-69
2022/06/11 01:22:47;;;;;;;6.90;4.43;;;;;;;16.39;69.58;99544.72;5105584;28;20320;-69
2022/06/11 01:25:28;;;;;;;5.20;4.68;;;;;;;16.00;69.79;99478.09;5105819;28;20044;-69
2022/06/11 01:28:22;;;;;;;6.03;4.30;;;;;;;16.39;69.85;99542.91;5105510;28;20043;-68
2022/06/11 01:30:55;;;;;;;7.60;4.53;;;;;;;16.37;70.50;99542.16;5105786;28;20337;-68
2022/06/11 01:33:34;;;;;;;4.35;3.95;;;;;;;16.35;70.06;99539.59;5105722;28;20048;-69
2022/06/11 01:36:06;;;;;;;5.38;4.53;;;;;;;15.74;70.33;99438.28;5105215;28;20063;-69
2022/06/11 01:38:38;;;;;;;6.25;4.35;;;;;;;16.31;70.66;99546.16;5105600;28;20055;-70
2022/06/11 01:41:25;;;;;;;4.90;4.47;;;;;;;16.33;68.96;99538.88;5105639;28;20056;-69
2022/06/11 01:43:55;;;;;;;4.88;4.38;;;;;;;16.32;69.95;99536.31;5105412;28;20055;-69
2022/06/11 01:46:27;;;;;;;4.90;4.40;;;;;;;16.31;69.83;99537.28;5105473;28;20059;-68
2022/06/11 01:48:57;;;;;;;4.90;4.20;;;;;;;16.31;70.45;99535.47;5105562;28;20154;-68
2022/06/11 01:51:35;;;;;;;5.32;4.30;;;;;;;16.26;69.30;99537.63;5105210;28;20048;-68
2022/06/11 01:54:26;;;;;;;6.28;4.40;;;;;;;16.26;68.96;99542.13;5104955;28;20048;-68
2022/06/11 01:57:13;;;;;;;6.45;4.20;;;;;;;16.24;69.17;99541.38;5105342;28;20047;-68
2022/06/11 02:00:05;;;;;;;5.70;4.10;;;;;;;16.25;69.17;99545.78;5105385;28;20047;-69
2022/06/11 02:02:49;;;;;;;4.35;3.95;;;;;;;16.21;69.28;99547.81;5105106;28;20071;-70
2022/06/11 02:05:21;;;;;;;5.15;4.47;;;;;;;16.22;70.21;99548.69;5105485;28;20119;-70
2022/06/11 02:07:56;;;;;;;4.70;4.00;;;;;;;16.20;69.95;99548.78;5105350;28;20055;-68
2022/06/11 02:10:33;;;;;;;5.05;4.18;;;;;;;16.21;69.95;99558.50;5105249;28;20252;-69
2022/06/11 02:13:05;;;;;;;5.03;4.15;;;;;;;16.22;69.99;99551.34;5105510;28;20055;-68
2022/06/11 02:15:37;;;;;;;5.20;4.00;;;;;;;16.20;69.43;99551.47;5105333;28;20052;-68
2022/06/11 02:18:11;;;;;;;5.88;4.07;;;;;;;16.18;69.61;99553.41;5104941;28;20307;-68
2022/06/11 02:20:42;;;;;;;5.90;4.23;;;;;;;16.17;69.70;99548.16;5104947;28;20052;-68
2022/06/11 02:23:16;;;;;;;6.43;4.30;;;;;;;16.14;69.14;99554.59;5105273;28;20048;-68
2022/06/11 02:25:46;;;;;;;;;;;;;;;16.07;67.98;99557.84;5105713;28;20063;-68
2022/06/11 02:28:18;;;;;;;3.90;3.50;;;;;;;16.09;69.80;99561.25;5105195;28;19916;-68
2022/06/11 02:30:47;;;;;;;5.45;4.05;;;;;;;16.14;70.00;99559.94;5105214;28;20323;-68
2022/06/11 02:33:18;;;;;;;3.83;3.50;;;;;;;16.11;69.78;99562.84;5104762;28;20052;-68
2022/06/11 02:35:55;;;;;;;5.65;3.70;;;;;;;16.12;69.95;99569.06;5104939;28;20076;-68
2022/06/11 02:38:26;;;;;;;4.53;4.13;;;;;;;16.08;69.36;99568.44;5105000;28;20308;-68
2022/06/11 02:40:56;;;;;;;4.95;4.30;;;;;;;15.78;69.50;99517.25;5107691;28;20056;-70
2022/06/11 02:43:24;;;;;;;6.28;4.40;;;;;;;16.08;70.13;99567.56;5108948;28;20052;-68
2022/06/11 02:45:52;;;;;;;5.22;4.22;;;;;;;16.07;69.68;99564.03;5108559;28;20047;-69
2022/06/11 02:48:21;;;;;;;4.20;3.80;;;;;;;16.05;69.50;99571.31;5108890;28;20063;-69
2022/06/11 02:50:48;;;;;;;4.38;3.97;;;;;;;16.05;69.94;99576.66;5108773;28;20056;-68
2022/06/11 02:53:17;;;;;;;5.53;3.95;;;;;;;16.02;69.46;99575.09;5108389;28;20052;-69
2022/06/11 02:55:45;;;;;;;4.90;3.58;;;;;;;16.00;69.89;99598.41;5108528;28;20055;-68
2022/06/11 02:58:14;;;;;;;5.30;4.20;;;;;;;15.97;69.72;99579.06;5108083;28;20047;-69
2022/06/11 03:00:47;;;;;;;5.53;3.85;;;;;;;15.94;69.35;99585.47;5108566;28;20056;-68
2022/06/11 03:03:14;;;;;;;5.65;4.43;;;;;;;15.93;70.12;99585.59;5108214;28;20056;-68
2022/06/11 03:05:44;;;;;;;10.65;3.70;;;;;;;15.93;69.98;99590.94;5108449;28;20065;-68
2022/06/11 03:08:11;;;;;;;5.65;4.78;;;;;;;15.95;69.77;99581.00;5108451;28;20056;-68
2022/06/11 03:10:39;;;;;;;5.20;4.18;;;;;;;15.96;70.12;99588.91;5108466;28;20208;-68
2022/06/11 03:13:07;;;;;;;4.10;3.70;;;;;;;15.94;69.81;99588.16;5108310;28;20228;-68
2022/06/11 03:15:35;;;;;;;5.53;3.65;;;;;;;15.93;69.81;99589.13;5108155;28;20048;-69
2022/06/11 03:18:02;;;;;;;10.05;4.30;;;;;;;15.93;70.09;99597.13;5108212;28;20063;-68
2022/06/11 03:20:31;;;;;;;5.22;4.13;;;;;;;15.91;69.80;99593.72;5107809;28;20338;-69
2022/06/11 03:23:00;;;;;;;5.78;3.97;;;;;;;15.92;69.67;99590.09;5107837;28;20063;-68
2022/06/11 03:25:27;;;;;;;6.72;4.00;;;;;;;15.95;69.73;99597.88;5108045;28;20063;-68
2022/06/11 03:27:55;;;;;;;4.75;4.25;;;;;;;15.97;69.69;99593.28;5107587;28;20339;-68
2022/06/11 03:30:22;;;;;;;6.53;4.35;;;;;;;15.95;69.87;99597.88;5107925;28;20056;-69
2022/06/11 03:32:49;;;;;;;4.30;3.90;;;;;;;15.93;69.67;99604.31;5107803;28;20051;-69
2022/06/11 03:35:17;;;;;;;4.43;3.95;;;;;;;15.92;69.83;99598.09;5107450;28;20056;-68
2022/06/11 03:37:45;;;;;;;5.25;4.63;;;;;;;15.95;69.94;99600.56;5107807;28;20066;-68
2022/06/11 03:40:14;;;;;;;6.50;4.63;;;;;;;15.65;69.46;99550.22;5107506;28;20057;-68
2022/06/11 03:42:41;;;;;;;4.70;4.00;;;;;;;15.96;69.36;99598.75;5107593;28;20212;-69
2022/06/11 03:45:10;;;;;;;6.15;4.70;;;;;;;15.96;69.42;99606.75;5107460;28;20056;-69
2022/06/11 03:47:40;;;;;;;5.13;4.03;;;;;;;15.96;69.77;99593.38;5107428;28;20063;-68
2022/06/11 03:50:10;;;;;;;4.43;3.92;;;;;;;15.95;69.26;99597.03;5107275;28;20055;-68
2022/06/11 03:52:38;;;;;;;4.85;3.97;;;;;;;15.96;69.58;99602.25;5107010;28;20320;-68
2022/06/11 03:55:06;;;;;;;6.00;4.60;;;;;;;15.98;69.39;99596.81;5107518;28;20303;-69
2022/06/11 03:57:35;;;;;;;4.18;3.78;;;;;;;15.98;68.98;99596.81;5107345;28;20047;-69
2022/06/11 04:00:05;;;;;;;5.45;3.80;;;;;;;15.97;69.27;99598.63;5107487;28;20063;-69
2022/06/11 04:02:32;;;;;;;6.28;4.40;;;;;;;15.99;69.25;99603.84;5107452;28;20063;-69
2022/06/11 04:04:59;;;;;;;4.85;4.30;;;;;;;16.00;69.62;99603.75;5107279;28;20070;-68
2022/06/11 04:07:27;;;;;;;4.38;3.88;;;;;;;16.01;69.40;99600.09;5106888;28;20339;-69
2022/06/11 04:09:54;;;;;;;4.85;3.85;;;;;;;16.03;69.06;99603.53;5107175;28;20048;-69
2022/06/11 04:12:21;;;;;;;4.70;4.30;;;;;;;16.04;68.83;99607.91;5106857;28;20059;-69
2022/06/11 04:14:51;;;;;;;5.88;3.90;;;;;;;16.05;68.94;99606.06;5089422;28;20044;-68
2022/06/11 04:17:23;;;;;;;5.18;4.13;;;;;;;16.06;68.89;99606.94;5106825;28;20048;-68
2022/06/11 04:19:52;;;;;;;4.97;4.00;;;;;;;16.08;68.90;99605.00;5106909;28;20047;-69
2022/06/11 04:22:19;;;;;;;4.95;3.60;;;;;;;16.09;68.92;99604.88;5106864;28;20091;-69
2022/06/11 04:24:48;;;;;;;4.60;4.20;;;;;;;16.10;68.87;99609.25;5106450;28;20185;-69
2022/06/11 04:27:18;;;;;;;6.50;3.70;;;;;;;15.50;68.63;99523.72;5106666;28;20044;-69
2022/06/11 04:29:47;;;;;;;4.72;4.15;;;;;;;16.16;68.47;99618.66;5106556;28;20303;-69
2022/06/11 04:32:18;;;;;;;6.63;4.63;;;;;;;16.16;68.29;99622.19;5106664;28;20353;-69
2022/06/11 04:34:47;;;;;;;4.60;3.65;;;;;;;16.18;68.48;99619.41;5106495;28;20097;-68
2022/06/11 04:37:18;;;;;;;5.15;4.22;;;;;;;15.38;68.18;99480.06;5106429;28;20243;-69
2022/06/11 04:39:53;;;;;;;9.57;4.90;;;;;;;16.20;68.10;99618.31;5106657;28;20102;-69
2022/06/11 04:42:21;;;;;;;5.45;4.18;;;;;;;16.23;68.32;99623.44;5106278;28;20101;-69
2022/06/11 04:44:49;;;;;;;5.95;4.22;;;;;;;16.25;68.63;99618.81;5106445;28;20300;-69
2022/06/11 04:47:22;;;;;;;7.28;4.28;;;;;;;16.27;67.77;99624.91;5106439;28;20052;-69
2022/06/11 04:49:51;;;;;;;7.57;4.82;;;;;;;15.85;68.35;99540.72;5106590;28;20311;-69
2022/06/11 04:52:18;;;;;;;4.65;4.15;;;;;;;16.35;68.44;99627.00;5106343;28;20052;-69
2022/06/11 04:54:46;;;;;;;4.90;4.03;;;;;;;16.38;68.37;99628.59;5105929;28;20060;-69
2022/06/11 04:57:13;;;;;;;5.45;4.10;;;;;;;16.30;68.11;99621.16;5106229;28;20193;-69
2022/06/11 04:59:41;;;;;;;4.47;3.95;;;;;;;16.44;68.14;99633.50;5106235;28;20312;-69
2022/06/11 05:02:09;;;;;;;6.85;4.13;;;;;;;16.46;67.97;99637.78;5106964;28;20292;-69
2022/06/11 05:04:37;;;;;;;4.45;4.05;;;;;;;16.49;67.67;99634.00;5105422;28;20048;-69
2022/06/11 05:07:05;;;;;;;6.35;3.97;;;;;;;16.50;67.81;99639.25;5106154;28;20250;-68
2022/06/11 05:09:33;;;;;;;5.28;4.05;;;;;;;16.53;67.54;99636.34;5105981;28;20074;-69
2022/06/11 05:12:01;;;;;;;5.45;4.18;;;;;;;16.56;67.57;99643.28;5105562;28;20052;-69
2022/06/11 05:14:30;;;;;;;7.78;3.63;;;;;;;16.58;67.31;99644.88;5105774;28;20098;-69
2022/06/11 05:16:59;;;;;;;5.40;4.63;;;;;;;16.62;67.77;99645.50;5105788;28;20129;-69
2022/06/11 05:19:27;;;;;;;5.40;3.70;;;;;;;16.65;67.33;99642.59;5105586;28;20105;-68
2022/06/11 05:21:56;;;;;;;4.50;3.90;;;;;;;16.67;67.06;99643.34;5105386;28;20180;-69
2022/06/11 05:24:24;;;;;;;5.00;3.60;;;;;;;16.71;67.07;99652.00;5105697;28;20048;-69
2022/06/11 05:26:55;;;;;;;4.95;3.67;;;;;;;16.63;66.94;99623.97;5105483;28;20105;-69
2022/06/11 05:29:26;;;;;;;5.78;3.97;;;;;;;16.77;66.68;99639.00;5105700;28;20048;-69
2022/06/11 05:31:53;;;;;;;5.38;3.67;;;;;;;16.79;66.65;99634.41;5105655;28;20239;-69
2022/06/11 05:34:21;;;;;;;5.15;3.85;;;;;;;16.82;66.58;99636.84;5105567;28;20329;-69
2022/06/11 05:36:48;;;;;;;6.22;4.43;;;;;;;16.86;66.67;99637.47;5105267;28;20059;-69
2022/06/11 05:39:17;;;;;;;6.35;4.50;;;;;;;16.90;66.70;99645.13;5105871;28;20052;-69
2022/06/11 05:41:44;;;;;;;5.13;4.00;;;;;;;16.93;66.44;99641.38;5105661;28;20241;-69
2022/06/11 05:44:12;;;;;;;5.10;3.90;;;;;;;16.96;66.04;99643.81;5105429;28;20315;-69
2022/06/11 05:46:40;;;;;;;5.85;4.60;;;;;;;16.99;66.62;99641.75;5105609;28;20086;-69
2022/06/11 05:49:14;;;;;;;5.75;3.83;;;;;;;17.04;66.14;99649.44;5105215;28;20047;-69
2022/06/11 05:51:44;;;;;;;6.32;3.50;;;;;;;17.07;66.23;99648.34;5105373;28;20056;-69
2022/06/11 05:54:15;;;;;;;5.00;4.32;;;;;;;17.11;66.16;99647.97;5105015;28;20247;-69
2022/06/11 05:56:44;;;;;;;5.85;4.40;;;;;;;15.15;65.34;99332.25;5105300;28;20081;-69
2022/06/11 05:59:18;;;;;;;6.68;4.05;;;;;;;16.46;65.17;99533.44;5105102;28;20098;-69
2022/06/11 06:01:46;;;;;;;4.45;4.05;;;;;;;17.20;65.49;99649.97;5105351;28;20246;-69
2022/06/11 06:04:13;;;;;;;5.38;3.55;;;;;;;16.62;64.95;99549.16;5105327;28;20052;-69
2022/06/11 06:06:40;;;;;;;7.22;4.03;;;;;;;17.28;64.96;99650.22;5104966;28;20109;-69
2022/06/11 06:09:08;;;;;;;7.60;4.25;;;;;;;17.33;65.06;99644.50;5105271;28;20299;-69
2022/06/11 06:11:35;;;;;;;4.47;3.90;;;;;;;16.72;64.66;99547.50;5105214;28;20055;-68
2022/06/11 06:14:04;;;;;;;3.72;3.33;;;;;;;17.40;64.50;99645.75;5105219;28;20056;-69
2022/06/11 06:16:31;;;;;;;6.40;3.75;;;;;;;17.43;64.63;99650.84;5108929;28;20250;-69
2022/06/11 06:19:01;;;;;;;4.90;3.28;;;;;;;17.25;64.36;99614.81;5109395;28;20113;-69
2022/06/11 06:21:32;;;;;;;4.85;4.10;;;;;;;17.50;64.34;99660.13;5108860;28;20047;-69
2022/06/11 06:23:59;;;;;;;5.78;4.22;;;;;;;17.54;64.26;99655.38;5109212;28;20177;-69
2022/06/11 06:26:26;;;;;;;4.75;3.85;;;;;;;17.57;64.00;99653.28;5108772;28;20055;-69
2022/06/11 06:28:53;;;;;;;6.82;4.22;;;;;;;17.61;64.05;99665.50;5108984;28;20056;-69
2022/06/11 06:31:21;;;;;;;5.63;4.00;;;;;;;17.63;63.54;99657.34;5108885;28;20056;-69
2022/06/11 06:33:50;;;;;;;5.60;3.53;;;;;;;17.65;63.54;99649.19;5109149;28;20133;-69
2022/06/11 06:36:18;;;;;;;4.35;3.33;;;;;;;17.76;63.75;99652.72;5108821;28;20064;-69
2022/06/11 06:38:46;;;;;;;6.88;4.07;;;;;;;17.81;63.53;99663.91;5108310;28;20321;-69
2022/06/11 06:41:14;;;;;;;6.40;3.85;;;;;;;17.23;62.92;99556.00;5108309;28;20115;-69
2022/06/11 06:43:42;;;;;;;6.45;3.53;;;;;;;17.90;63.13;99665.88;5108418;28;20056;-69
2022/06/11 06:46:10;;;;;;;5.38;4.07;;;;;;;17.92;62.60;99655.88;5108185;28;20047;-69
2022/06/11 06:48:39;;;;;;;3.85;3.40;;;;;;;17.98;62.56;99662.56;5108411;28;20060;-69
2022/06/11 06:51:06;;;;;;;5.53;4.38;;;;;;;18.04;62.79;99663.91;5108462;28;20060;-69
2022/06/11 06:53:33;;;;;;;4.90;3.90;;;;;;;18.10;62.41;99668.75;5108105;28;20056;-69
2022/06/11 06:56:00;;;;;;;8.25;4.32;;;;;;;18.18;62.31;99664.47;5108597;28;20098;-69
2022/06/11 06:58:28;;;;;;;5.40;4.32;;;;;;;18.27;62.14;99666.41;5108341;28;20044;-69
2022/06/11 07:00:55;;;;;;;5.05;3.97;;;;;;;18.35;62.08;99670.28;5108475;28;20097;-69
2022/06/11 07:03:22;;;;;;;6.70;4.13;;;;;;;18.43;61.48;99663.31;5107823;28;20090;-69
2022/06/11 07:05:51;;;;;;;5.10;4.28;;;;;;;18.55;61.75;99659.66;5108359;28;20052;-69
2022/06/11 07:08:19;;;;;;;5.07;3.95;;;;;;;18.67;61.26;99665.81;5108462;28;20201;-69
2022/06/11 07:10:49;;;;;;;5.45;4.35;;;;;;;18.79;61.21;99658.56;5108116;28;20177;-69
2022/06/11 07:13:17;;;;;;;6.97;4.10;;;;;;;18.99;60.65;99654.19;5108037;28;20064;-69
2022/06/11 07:15:46;;;;;;;5.90;4.53;;;;;;;19.20;60.20;99647.84;5107688;28;20070;-69
2022/06/11 07:18:19;;;;;;;6.03;3.85;;;;;;;19.44;59.57;99644.88;5108000;28;20056;-69
2022/06/11 07:20:48;;;;;;;6.53;4.20;;;;;;;19.64;58.65;99628.84;5107749;28;20121;-69
2022/06/11 07:23:21;;;;;;;5.68;3.88;;;;;;;19.98;56.80;99643.72;5107827;28;20048;-69
2022/06/11 07:25:51;;;;;;;4.97;4.05;;;;;;;20.27;57.42;99643.81;5107175;28;20373;-69
2022/06/11 07:28:23;;;;;;;6.65;4.30;;;;;;;20.53;57.57;99649.50;5107372;28;20051;-68
2022/06/11 07:30:51;;;;;;;4.30;3.65;;;;;;;20.76;56.99;99642.84;5107824;28;20101;-69
2022/06/11 07:33:22;;;;;;;6.70;3.85;;;;;;;20.99;56.69;99650.63;5107527;28;20113;-69
2022/06/11 07:35:50;;;;;;;6.35;3.95;;;;;;;20.81;55.79;99578.63;5107325;28;20056;-69
2022/06/11 07:38:21;;;;;;;5.07;3.70;;;;;;;21.50;55.66;99646.69;5107471;28;20055;-69
2022/06/11 07:40:49;;;;;;;6.20;3.70;;;;;;;21.72;55.37;99644.47;5107246;28;20055;-69
2022/06/11 07:43:16;;;;;;;5.50;3.92;;;;;;;21.92;54.50;99645.28;5106981;28;20106;-69
2022/06/11 07:45:45;;;;;;;6.53;4.10;;;;;;;22.13;54.45;99636.91;5107718;28;20121;-69
2022/06/11 07:48:13;;;;;;;5.55;4.18;;;;;;;22.35;54.38;99638.34;5107001;28;20367;-69
2022/06/11 07:50:42;;;;;;;5.90;3.92;;;;;;;22.50;53.17;99646.78;5107562;28;20361;-69
2022/06/11 07:53:10;;;;;;;4.28;3.63;;;;;;;22.63;53.21;99642.72;5107245;28;20121;-69
2022/06/11 07:55:40;;;;;;;5.88;3.30;;;;;;;22.61;52.35;99615.03;5106939;28;20262;-68
2022/06/11 07:58:09;;;;;;;5.15;4.00;;;;;;;23.04;53.02;99651.19;5106950;28;20063;-69
2022/06/11 08:00:38;;;;;;;5.32;3.67;;;;;;;23.17;52.01;99629.16;5107261;28;20114;-69
2022/06/11 08:03:06;;;;;;;8.27;4.13;;;;;;;23.35;52.03;99629.97;5106762;28;20097;-69
2022/06/11 08:05:34;;;;;;;8.40;4.05;;;;;;;23.58;51.42;99633.00;5107087;28;20060;-68
2022/06/11 08:08:01;;;;;;;5.00;4.30;;;;;;;23.77;51.49;99634.59;5106700;28;20059;-69
2022/06/11 08:10:29;;;;;;;7.75;4.38;;;;;;;23.71;50.70;99636.09;5107026;28;20113;-69
2022/06/11 08:12:58;;;;;;;7.63;3.40;;;;;;;23.91;49.41;99632.13;5107070;28;20056;-69
2022/06/11 08:15:25;;;;;;;4.60;2.90;;;;;;;24.13;50.00;99632.56;5107093;28;20121;-69
2022/06/11 08:17:52;;;;;;;6.07;3.50;;;;;;;24.05;49.72;99587.38;5106940;28;20365;-69
2022/06/11 08:20:23;;;;;;;5.68;3.30;;;;;;;24.52;49.06;99635.53;5106556;28;20052;-69
2022/06/11 08:22:52;;;;;;;5.20;3.45;;;;;;;24.36;49.26;99581.34;5106521;28;20063;-69
2022/06/11 08:25:19;;;;;;;5.43;3.25;;;;;;;24.31;48.84;99544.78;5106521;28;20085;-69
2022/06/11 08:27:47;;;;;;;3.70;2.80;;;;;;;24.92;48.76;99627.47;5106425;28;20094;-69
2022/06/11 08:30:18;;;;;;;4.75;3.25;;;;;;;25.08;48.00;99634.78;5106756;28;20063;-69
2022/06/11 08:32:45;;;;;;;3.95;2.95;;;;;;;25.20;48.06;99622.56;5106359;28;20055;-69
2022/06/11 08:35:14;;;;;;;6.47;3.00;;;;;;;25.15;47.76;99594.25;5106456;28;20056;-69
2022/06/11 08:37:41;;;;;;;4.80;3.20;;;;;;;25.44;47.12;99624.41;5105303;28;20109;-69
2022/06/11 08:40:28;;;;;;;4.35;3.40;;;;;;;25.55;44.60;99623.19;5105870;28;20273;-69
2022/06/11 08:43:00;;;;;;;5.07;3.58;;;;;;;25.63;45.51;99614.19;5106299;28;20086;-69
2022/06/11 08:45:38;;;;;;;4.55;3.95;;;;;;;25.69;44.53;99608.88;5106116;28;20056;-69
2022/06/11 08:48:14;;;;;;;6.53;3.95;;;;;;;25.76;43.48;99615.31;5105842;28;20052;-69
2022/06/11 08:50:52;;;;;;;10.70;3.17;;;;;;;25.84;43.94;99614.44;5106099;28;20117;-69
2022/06/11 08:53:20;;;;;;;3.90;3.10;;;;;;;25.99;45.77;99614.56;5105950;28;20063;-69
2022/06/11 08:55:47;;;;;;;6.80;3.60;;;;;;;26.07;45.41;99611.81;5106304;28;20105;-69
2022/06/11 08:58:27;;;;;;;6.80;3.55;;;;;;;24.41;42.89;99324.34;5105987;28;20052;-69
2022/06/11 09:01:04;;;;;;;6.35;3.42;;;;;;;26.13;42.11;99613.81;5105980;28;20101;-68
2022/06/11 09:03:45;;;;;;;6.00;3.80;;;;;;;26.02;43.32;99615.06;5105426;28;20048;-69
2022/06/11 09:06:27;;;;;;;4.32;3.13;;;;;;;26.12;43.34;99621.13;5105650;28;20051;-70
2022/06/11 09:09:04;;;;;;;9.32;4.28;;;;;;;25.81;43.47;99550.47;5105653;28;20044;-69
2022/06/11 09:11:52;;;;;;;4.90;3.33;;;;;;;26.35;40.98;99615.72;5105529;28;20055;-69
2022/06/11 09:14:44;;;;;;;5.32;3.88;;;;;;;26.38;41.26;99604.50;5106368;28;20097;-69
2022/06/11 09:17:34;;;;;;;4.78;3.65;;;;;;;26.41;40.36;99609.56;5105698;28;20056;-69
2022/06/11 09:20:14;;;;;;;3.72;3.20;;;;;;;26.44;42.31;99613.78;5105473;28;20052;-70
2022/06/11 09:22:58;;;;;;;6.18;4.32;;;;;;;26.55;42.07;99618.81;5105489;28;20069;-69
2022/06/11 09:25:36;;;;;;;5.28;3.33;;;;;;;26.60;41.86;99623.69;5105072;28;20121;-69
2022/06/11 09:28:11;;;;;;;6.72;3.33;;;;;;;26.69;42.41;99619.94;5105506;28;20093;-69
2022/06/11 09:30:41;;;;;;;4.75;3.65;;;;;;;26.65;44.23;99618.59;5105199;28;20308;-69
2022/06/11 09:33:16;;;;;;;5.93;3.22;;;;;;;26.36;42.21;99611.13;5104658;28;20109;-69
2022/06/11 09:35:51;;;;;;;6.82;3.30;;;;;;;26.39;42.67;99616.19;5105244;28;20365;-69
2022/06/11 09:38:26;;;;;;;4.45;3.50;;;;;;;26.42;43.42;99608.53;5105405;28;20090;-69
2022/06/11 09:41:04;;;;;;;5.45;3.75;;;;;;;26.45;42.63;99601.91;5105212;28;20048;-69
2022/06/11 09:43:40;;;;;;;5.93;4.70;;;;;;;26.53;43.18;99610.84;5105273;28;20063;-69
2022/06/11 09:46:15;;;;;;;4.97;3.80;;;;;;;26.46;41.65;99588.13;5105433;28;20048;-69
2022/06/11 09:49:05;;;;;;;6.40;3.42;;;;;;;26.51;40.34;99598.47;5104757;28;20106;-69
2022/06/11 09:51:39;;;;;;;4.97;3.15;;;;;;;26.57;43.00;99599.59;5105306;28;20108;-69
2022/06/11 09:54:27;;;;;;;4.68;3.75;;;;;;;26.71;40.52;99596.97;5104853;28;20381;-69
2022/06/11 09:57:05;;;;;;;4.57;3.75;;;;;;;26.77;41.33;99596.25;5105302;28;20117;-69
2022/06/11 09:59:37;;;;;;;5.72;3.50;;;;;;;26.83;41.73;99597.38;5104967;28;20234;-70
2022/06/11 10:02:19;;;;;;;4.30;3.17;;;;;;;27.01;38.93;99588.91;5104637;28;20305;-69
2022/06/11 10:04:50;;;;;;;5.72;3.15;;;;;;;26.89;39.88;99584.94;5104932;28;20055;-69
2022/06/11 10:07:21;;;;;;;4.93;2.70;;;;;;;26.73;41.11;99592.19;5104384;28;20106;-69
2022/06/11 10:09:58;;;;;;;6.22;2.70;;;;;;;26.65;41.14;99585.97;5104548;28;20093;-69
2022/06/11 10:12:31;;;;;;;4.90;3.53;;;;;;;26.66;41.17;99582.22;5104338;28;20089;-69
2022/06/11 10:15:03;;;;;;;4.63;3.20;;;;;;;26.74;41.00;99580.28;5105000;28;20231;-69
2022/06/11 10:17:38;;;;;;;6.65;3.53;;;;;;;26.80;39.52;99579.56;5104652;28;20056;-69
2022/06/11 10:20:13;;;;;;;9.32;3.80;;;;;;;26.67;38.69;99556.75;5104736;28;20318;-69
2022/06/11 10:22:48;;;;;;;6.80;3.33;;;;;;;26.83;39.17;99567.47;5104577;28;20079;-69
2022/06/11 10:25:20;;;;;;;4.90;3.70;;;;;;;26.43;39.66;99484.38;5104802;28;20307;-68
2022/06/11 10:27:53;;;;;;;5.82;3.25;;;;;;;27.02;40.10;99566.09;5104445;28;20109;-69
2022/06/11 10:30:33;;;;;;;4.97;4.03;;;;;;;27.01;38.16;99573.41;5104726;28;20048;-68
2022/06/11 10:33:04;;;;;;;6.85;4.10;;;;;;;26.98;39.46;99573.78;5104715;28;20109;-69
2022/06/11 10:35:41;;;;;;;4.78;3.50;;;;;;;27.02;37.55;99579.69;5104786;28;20246;-69
2022/06/11 10:38:17;;;;;;;5.97;4.07;;;;;;;27.08;38.50;99573.53;5104390;28;20063;-69
2022/06/11 10:40:48;;;;;;;9.55;3.90;;;;;;;26.52;38.90;99486.84;5104501;28;20048;-69
2022/06/11 10:43:20;;;;;;;4.50;2.90;;;;;;;27.11;38.36;99570.44;5104652;28;20097;-69
2022/06/11 10:45:48;;;;;;;5.57;3.15;;;;;;;27.04;39.57;99572.19;5104067;28;20048;-69
2022/06/11 10:48:19;;;;;;;5.18;2.75;;;;;;;26.99;38.55;99580.91;5104614;28;20322;-69
2022/06/11 10:50:48;;;;;;;3.90;2.85;;;;;;;27.05;39.08;99585.63;5104031;28;20079;-69
2022/06/11 10:53:22;;;;;;;4.78;3.22;;;;;;;26.69;38.25;99512.03;5103956;28;20052;-69
2022/06/11 10:55:52;;;;;;;5.30;3.10;;;;;;;27.02;39.41;99569.66;5104510;28;20357;-69
2022/06/11 10:58:28;;;;;;;6.18;3.90;;;;;;;27.03;38.43;99557.75;5104253;28;20085;-69
2022/06/11 11:00:59;;;;;;;5.97;4.55;;;;;;;27.08;38.38;99551.75;5104859;28;20332;-69
2022/06/11 11:03:32;;;;;;;6.88;4.00;;;;;;;27.11;38.25;99551.38;5107657;28;20056;-69
2022/06/11 11:06:03;;;;;;;5.07;3.83;;;;;;;27.15;38.74;99550.84;5107905;28;20096;-69
2022/06/11 11:08:31;;;;;;;4.63;3.50;;;;;;;27.22;39.18;99552.81;5107804;28;20261;-69
2022/06/11 11:11:00;;;;;;;4.55;2.85;;;;;;;27.23;37.96;99544.50;5107844;28;20097;-69
2022/06/11 11:13:35;;;;;;;4.18;3.05;;;;;;;27.17;37.52;99550.66;5107485;28;20109;-69
2022/06/11 11:16:10;;;;;;;8.98;5.65;;;;;;;27.19;37.21;99549.44;5089736;28;20056;-69
2022/06/11 11:18:43;;;;;;;8.38;4.88;;;;;;;27.28;37.21;99541.22;5107927;28;20169;-69
2022/06/11 11:21:22;;;;;;;5.37;3.57;;;;;;;27.28;36.28;99538.50;5107227;28;20059;-69
2022/06/11 11:23:51;;;;;;;5.70;2.67;;;;;;;27.33;38.49;99538.75;5107614;28;20109;-70
2022/06/11 11:26:28;;;;;;;4.82;3.08;;;;;;;27.39;37.22;99547.03;5107303;28;20255;-69
2022/06/11 11:29:01;;;;;;;6.40;3.78;;;;;;;27.46;37.71;99541.66;5107397;28;20316;-70
2022/06/11 11:31:39;;;;;;;3.72;2.70;;;;;;;27.17;37.24;99493.50;5107010;28;20101;-70
2022/06/11 11:34:14;;;;;;;4.13;3.17;;;;;;;27.46;36.14;99531.63;5107541;28;20044;-70
2022/06/11 11:36:43;;;;;;;5.22;3.72;;;;;;;27.25;37.39;99534.25;5107709;28;20056;-70
2022/06/11 11:39:24;;;;;;;4.03;2.80;;;;;;;27.13;36.38;99533.84;5106976;28;20052;-70
2022/06/11 11:42:19;;;;;;;8.38;3.60;;;;;;;27.05;36.67;99525.78;5107010;28;20124;-70
2022/06/11 11:44:50;;;;;;;5.70;3.58;;;;;;;26.97;38.95;99519.56;5060629;28;20062;-70
2022/06/11 11:47:25;;;;;;;6.13;3.10;;;;;;;26.82;38.10;99519.56;5107153;28;20113;-70
2022/06/11 11:49:56;;;;;;;6.65;3.55;;;;;;;26.75;38.57;99524.03;5107259;28;20120;-70
2022/06/11 11:52:27;;;;;;;7.30;3.65;;;;;;;26.78;38.06;99521.81;5107356;28;20056;-70
2022/06/11 11:55:00;;;;;;;5.72;4.28;;;;;;;26.83;38.55;99521.25;5107348;28;20047;-70